sensor_id;sensor_type;location;lat;lon;timestamp;temperature;humidity
26254;DHT22;53339;51.378;0.094;2023-07-13T00:01:02;15.80;79.00
26254;DHT22;53339;51.378;0.094;2023-07-13T00:03:32;15.70;78.90
26254;DHT22;53339;51.378;0.094;2023-07-13T00:06:05;15.70;78.90
26254;DHT22;53339;51.378;0.094;2023-07-13T00:08:33;15.70;78.90
26254;DHT22;53339;51.378;0.094;2023-07-13T00:11:09;15.70;79.00
26254;DHT22;53339;51.378;0.094;2023-07-13T00:13:41;15.80;79.00
26254;DHT22;53339;51.378;0.094;2023-07-13T00:16:17;15.80;78.90
26254;DHT22;53339;51.378;0.094;2023-07-13T00:18:50;15.80;78.80
26254;DHT22;53339;51.378;0.094;2023-07-13T00:21:28;15.80;78.80
26254;DHT22;53339;51.378;0.094;2023-07-13T00:23:56;15.80;78.80
26254;DHT22;53339;51.378;0.094;2023-07-13T00:26:28;15.80;78.80
26254;DHT22;53339;51.378;0.094;2023-07-13T00:29:06;15.80;78.70
26254;DHT22;53339;51.378;0.094;2023-07-13T00:31:45;15.80;78.70
26254;DHT22;53339;51.378;0.094;2023-07-13T00:34:19;15.80;78.50
26254;DHT22;53339;51.378;0.094;2023-07-13T00:36:56;15.80;78.30
26254;DHT22;53339;51.378;0.094;2023-07-13T00:39:28;15.80;78.10
26254;DHT22;53339;51.378;0.094;2023-07-13T00:42:01;15.80;78.00
26254;DHT22;53339;51.378;0.094;2023-07-13T00:44:30;15.80;77.90
26254;DHT22;53339;51.378;0.094;2023-07-13T00:46:58;15.70;77.90
26254;DHT22;53339;51.378;0.094;2023-07-13T00:49:29;15.70;77.80
26254;DHT22;53339;51.378;0.094;2023-07-13T00:52:03;15.70;77.80
26254;DHT22;53339;51.378;0.094;2023-07-13T00:54:41;15.70;77.80
26254;DHT22;53339;51.378;0.094;2023-07-13T00:57:14;15.70;77.80
26254;DHT22;53339;51.378;0.094;2023-07-13T00:59:47;15.70;77.90
26254;DHT22;53339;51.378;0.094;2023-07-13T01:02:21;15.60;77.90
26254;DHT22;53339;51.378;0.094;2023-07-13T01:05:12;15.60;78.00
26254;DHT22;53339;51.378;0.094;2023-07-13T01:07:45;15.60;78.20
26254;DHT22;53339;51.378;0.094;2023-07-13T01:10:27;15.50;78.10
26254;DHT22;53339;51.378;0.094;2023-07-13T01:12:58;15.50;78.10
26254;DHT22;53339;51.378;0.094;2023-07-13T01:15:45;15.40;78.20
26254;DHT22;53339;51.378;0.094;2023-07-13T01:23:30;15.40;78.90
26254;DHT22;53339;51.378;0.094;2023-07-13T01:26:00;15.40;78.90
26254;DHT22;53339;51.378;0.094;2023-07-13T01:28:30;15.30;79.00
26254;DHT22;53339;51.378;0.094;2023-07-13T01:31:12;15.30;79.00
26254;DHT22;53339;51.378;0.094;2023-07-13T01:33:43;15.30;79.10
26254;DHT22;53339;51.378;0.094;2023-07-13T01:36:22;15.20;79.10
26254;DHT22;53339;51.378;0.094;2023-07-13T01:38:50;15.20;79.20
26254;DHT22;53339;51.378;0.094;2023-07-13T01:41:20;15.20;79.30
26254;DHT22;53339;51.378;0.094;2023-07-13T01:43:48;15.10;79.40
26254;DHT22;53339;51.378;0.094;2023-07-13T01:46:17;15.20;79.40
26254;DHT22;53339;51.378;0.094;2023-07-13T01:48:59;15.10;79.50
26254;DHT22;53339;51.378;0.094;2023-07-13T01:51:28;15.10;79.40
26254;DHT22;53339;51.378;0.094;2023-07-13T01:54:00;15.10;79.30
26254;DHT22;53339;51.378;0.094;2023-07-13T01:56:29;15.10;79.30
26254;DHT22;53339;51.378;0.094;2023-07-13T01:59:05;15.00;79.50
26254;DHT22;53339;51.378;0.094;2023-07-13T02:01:35;15.00;79.60
26254;DHT22;53339;51.378;0.094;2023-07-13T02:04:15;14.90;79.60
26254;DHT22;53339;51.378;0.094;2023-07-13T02:06:50;15.00;79.70
26254;DHT22;53339;51.378;0.094;2023-07-13T02:09:18;15.00;79.60
26254;DHT22;53339;51.378;0.094;2023-07-13T02:11:46;15.00;79.50
26254;DHT22;53339;51.378;0.094;2023-07-13T02:14:23;15.00;79.40
26254;DHT22;53339;51.378;0.094;2023-07-13T02:17:03;15.00;79.30
26254;DHT22;53339;51.378;0.094;2023-07-13T02:19:56;14.90;79.20
26254;DHT22;53339;51.378;0.094;2023-07-13T02:22:24;14.90;79.20
26254;DHT22;53339;51.378;0.094;2023-07-13T02:24:53;14.90;79.10
26254;DHT22;53339;51.378;0.094;2023-07-13T02:27:27;14.90;79.20
26254;DHT22;53339;51.378;0.094;2023-07-13T02:30:09;14.90;79.10
26254;DHT22;53339;51.378;0.094;2023-07-13T02:32:40;14.90;79.00
26254;DHT22;53339;51.378;0.094;2023-07-13T02:35:11;14.80;79.00
26254;DHT22;53339;51.378;0.094;2023-07-13T02:37:46;14.90;79.00
26254;DHT22;53339;51.378;0.094;2023-07-13T02:40:32;14.90;79.00
26254;DHT22;53339;51.378;0.094;2023-07-13T02:43:07;14.90;79.00
26254;DHT22;53339;51.378;0.094;2023-07-13T02:45:36;14.90;78.90
26254;DHT22;53339;51.378;0.094;2023-07-13T02:48:07;14.80;79.00
26254;DHT22;53339;51.378;0.094;2023-07-13T02:50:44;14.80;78.90
26254;DHT22;53339;51.378;0.094;2023-07-13T02:53:13;14.80;78.90
26254;DHT22;53339;51.378;0.094;2023-07-13T02:55:41;14.80;78.90
26254;DHT22;53339;51.378;0.094;2023-07-13T02:58:12;14.80;78.90
26254;DHT22;53339;51.378;0.094;2023-07-13T03:00:50;14.70;79.00
26254;DHT22;53339;51.378;0.094;2023-07-13T03:03:19;14.70;79.10
26254;DHT22;53339;51.378;0.094;2023-07-13T03:05:59;14.70;79.10
26254;DHT22;53339;51.378;0.094;2023-07-13T03:08:34;14.70;79.10
26254;DHT22;53339;51.378;0.094;2023-07-13T03:11:14;14.70;79.20
26254;DHT22;53339;51.378;0.094;2023-07-13T03:13:46;14.70;79.20
26254;DHT22;53339;51.378;0.094;2023-07-13T03:16:15;14.70;79.40
26254;DHT22;53339;51.378;0.094;2023-07-13T03:18:52;14.70;79.40
26254;DHT22;53339;51.378;0.094;2023-07-13T03:21:34;14.60;79.50
26254;DHT22;53339;51.378;0.094;2023-07-13T03:24:06;14.70;79.40
26254;DHT22;53339;51.378;0.094;2023-07-13T03:26:43;14.60;79.50
26254;DHT22;53339;51.378;0.094;2023-07-13T03:29:20;14.60;79.70
26254;DHT22;53339;51.378;0.094;2023-07-13T03:31:54;14.60;79.90
26254;DHT22;53339;51.378;0.094;2023-07-13T03:34:33;14.60;80.00
26254;DHT22;53339;51.378;0.094;2023-07-13T03:37:05;14.60;80.00
26254;DHT22;53339;51.378;0.094;2023-07-13T03:39:37;14.50;80.00
26254;DHT22;53339;51.378;0.094;2023-07-13T03:42:08;14.50;80.20
26254;DHT22;53339;51.378;0.094;2023-07-13T03:44:41;14.50;80.10
26254;DHT22;53339;51.378;0.094;2023-07-13T03:47:25;14.50;80.20
26254;DHT22;53339;51.378;0.094;2023-07-13T03:49:58;14.50;80.40
26254;DHT22;53339;51.378;0.094;2023-07-13T03:52:31;14.40;80.40
26254;DHT22;53339;51.378;0.094;2023-07-13T03:55:02;14.40;80.50
26254;DHT22;53339;51.378;0.094;2023-07-13T03:57:35;14.40;80.60
26254;DHT22;53339;51.378;0.094;2023-07-13T04:00:13;14.40;80.80
26254;DHT22;53339;51.378;0.094;2023-07-13T04:02:44;14.40;80.90
26254;DHT22;53339;51.378;0.094;2023-07-13T04:05:15;14.40;80.90
26254;DHT22;53339;51.378;0.094;2023-07-13T04:07:48;14.40;80.80
26254;DHT22;53339;51.378;0.094;2023-07-13T04:10:24;14.40;80.90
26254;DHT22;53339;51.378;0.094;2023-07-13T04:13:00;14.40;81.00
26254;DHT22;53339;51.378;0.094;2023-07-13T04:15:30;14.40;81.10
26254;DHT22;53339;51.378;0.094;2023-07-13T04:18:01;14.40;81.10
26254;DHT22;53339;51.378;0.094;2023-07-13T04:20:32;14.40;81.00
26254;DHT22;53339;51.378;0.094;2023-07-13T04:23:00;14.40;81.00
26254;DHT22;53339;51.378;0.094;2023-07-13T04:25:29;14.30;81.00
26254;DHT22;53339;51.378;0.094;2023-07-13T04:27:58;14.40;80.90
26254;DHT22;53339;51.378;0.094;2023-07-13T04:30:27;14.40;81.00
26254;DHT22;53339;51.378;0.094;2023-07-13T04:33:03;14.40;81.00
26254;DHT22;53339;51.378;0.094;2023-07-13T04:35:34;14.40;81.10
26254;DHT22;53339;51.378;0.094;2023-07-13T04:38:07;14.40;81.10
26254;DHT22;53339;51.378;0.094;2023-07-13T04:40:35;14.40;81.00
26254;DHT22;53339;51.378;0.094;2023-07-13T04:43:07;14.40;80.90
26254;DHT22;53339;51.378;0.094;2023-07-13T04:45:36;14.50;80.90
26254;DHT22;53339;51.378;0.094;2023-07-13T04:48:14;14.50;81.00
26254;DHT22;53339;51.378;0.094;2023-07-13T04:50:42;14.50;81.00
26254;DHT22;53339;51.378;0.094;2023-07-13T04:53:12;14.50;81.00
26254;DHT22;53339;51.378;0.094;2023-07-13T04:55:40;14.60;80.90
26254;DHT22;53339;51.378;0.094;2023-07-13T04:58:08;14.60;80.80
26254;DHT22;53339;51.378;0.094;2023-07-13T05:00:39;14.60;80.80
26254;DHT22;53339;51.378;0.094;2023-07-13T05:03:07;14.60;80.80
26254;DHT22;53339;51.378;0.094;2023-07-13T05:05:35;14.60;80.80
26254;DHT22;53339;51.378;0.094;2023-07-13T05:08:04;14.60;80.80
26254;DHT22;53339;51.378;0.094;2023-07-13T05:10:35;14.70;80.80
26254;DHT22;53339;51.378;0.094;2023-07-13T05:13:07;14.70;80.80
26254;DHT22;53339;51.378;0.094;2023-07-13T05:15:34;14.80;80.70
26254;DHT22;53339;51.378;0.094;2023-07-13T05:18:02;14.80;80.80
26254;DHT22;53339;51.378;0.094;2023-07-13T05:21:08;14.90;80.80
26254;DHT22;53339;51.378;0.094;2023-07-13T05:23:42;14.90;80.70
26254;DHT22;53339;51.378;0.094;2023-07-13T05:26:11;15.00;80.70
26254;DHT22;53339;51.378;0.094;2023-07-13T05:28:44;15.10;80.60
26254;DHT22;53339;51.378;0.094;2023-07-13T05:31:16;15.10;80.50
26254;DHT22;53339;51.378;0.094;2023-07-13T05:33:44;15.10;80.50
26254;DHT22;53339;51.378;0.094;2023-07-13T05:36:18;15.20;80.40
26254;DHT22;53339;51.378;0.094;2023-07-13T05:38:52;15.20;80.40
26254;DHT22;53339;51.378;0.094;2023-07-13T05:41:30;15.30;80.20
26254;DHT22;53339;51.378;0.094;2023-07-13T05:43:58;15.40;80.20
26254;DHT22;53339;51.378;0.094;2023-07-13T05:46:26;15.40;80.10
26254;DHT22;53339;51.378;0.094;2023-07-13T05:48:54;15.50;80.00
26254;DHT22;53339;51.378;0.094;2023-07-13T05:51:29;15.60;79.90
26254;DHT22;53339;51.378;0.094;2023-07-13T05:54:05;15.60;79.80
26254;DHT22;53339;51.378;0.094;2023-07-13T05:56:33;15.70;79.80
26254;DHT22;53339;51.378;0.094;2023-07-13T05:59:00;15.70;79.60
26254;DHT22;53339;51.378;0.094;2023-07-13T06:01:32;15.80;79.60
26254;DHT22;53339;51.378;0.094;2023-07-13T06:04:01;15.90;79.50
26254;DHT22;53339;51.378;0.094;2023-07-13T06:06:29;15.90;79.40
26254;DHT22;53339;51.378;0.094;2023-07-13T06:08:56;16.00;79.20
26254;DHT22;53339;51.378;0.094;2023-07-13T06:11:29;16.10;79.20
26254;DHT22;53339;51.378;0.094;2023-07-13T06:14:00;16.10;79.00
26254;DHT22;53339;51.378;0.094;2023-07-13T06:16:27;16.20;78.90
26254;DHT22;53339;51.378;0.094;2023-07-13T06:18:56;16.20;78.80
26254;DHT22;53339;51.378;0.094;2023-07-13T06:21:28;16.30;78.70
26254;DHT22;53339;51.378;0.094;2023-07-13T06:23:57;16.40;78.70
26254;DHT22;53339;51.378;0.094;2023-07-13T06:26:25;16.60;78.30
26254;DHT22;53339;51.378;0.094;2023-07-13T06:28:54;16.70;77.80
26254;DHT22;53339;51.378;0.094;2023-07-13T06:31:35;16.90;77.70
26254;DHT22;53339;51.378;0.094;2023-07-13T06:34:05;17.10;76.80
26254;DHT22;53339;51.378;0.094;2023-07-13T06:36:36;17.20;76.60
26254;DHT22;53339;51.378;0.094;2023-07-13T06:39:07;17.20;76.30
26254;DHT22;53339;51.378;0.094;2023-07-13T06:41:34;17.10;76.20
26254;DHT22;53339;51.378;0.094;2023-07-13T06:44:06;17.10;76.20
26254;DHT22;53339;51.378;0.094;2023-07-13T06:46:37;17.00;76.50
26254;DHT22;53339;51.378;0.094;2023-07-13T06:49:11;17.00;76.40
26254;DHT22;53339;51.378;0.094;2023-07-13T06:51:40;16.90;76.60
26254;DHT22;53339;51.378;0.094;2023-07-13T06:54:10;16.80;76.80
26254;DHT22;53339;51.378;0.094;2023-07-13T06:56:56;16.70;76.90
26254;DHT22;53339;51.378;0.094;2023-07-13T06:59:30;16.70;76.90
26254;DHT22;53339;51.378;0.094;2023-07-13T07:01:58;16.60;77.10
26254;DHT22;53339;51.378;0.094;2023-07-13T07:04:28;16.60;77.30
26254;DHT22;53339;51.378;0.094;2023-07-13T07:07:00;16.60;77.50
26254;DHT22;53339;51.378;0.094;2023-07-13T07:09:31;16.70;77.50
26254;DHT22;53339;51.378;0.094;2023-07-13T07:12:04;16.80;77.40
26254;DHT22;53339;51.378;0.094;2023-07-13T07:14:36;17.00;77.40
26254;DHT22;53339;51.378;0.094;2023-07-13T07:17:04;17.10;77.20
26254;DHT22;53339;51.378;0.094;2023-07-13T07:19:32;17.30;76.90
26254;DHT22;53339;51.378;0.094;2023-07-13T07:22:00;17.50;76.80
26254;DHT22;53339;51.378;0.094;2023-07-13T07:24:29;17.70;75.90
26254;DHT22;53339;51.378;0.094;2023-07-13T07:26:57;17.70;75.40
26254;DHT22;53339;51.378;0.094;2023-07-13T07:29:29;17.70;75.20
26254;DHT22;53339;51.378;0.094;2023-07-13T07:32:04;17.80;75.30
26254;DHT22;53339;51.378;0.094;2023-07-13T07:34:55;17.90;75.50
26254;DHT22;53339;51.378;0.094;2023-07-13T07:37:23;18.10;74.70
26254;DHT22;53339;51.378;0.094;2023-07-13T07:40:11;18.10;74.60
26254;DHT22;53339;51.378;0.094;2023-07-13T07:42:43;18.00;74.30
26254;DHT22;53339;51.378;0.094;2023-07-13T07:45:11;18.00;74.60
26254;DHT22;53339;51.378;0.094;2023-07-13T07:47:39;18.00;74.50
26254;DHT22;53339;51.378;0.094;2023-07-13T07:50:09;18.10;74.50
26254;DHT22;53339;51.378;0.094;2023-07-13T07:52:38;18.20;74.40
26254;DHT22;53339;51.378;0.094;2023-07-13T07:55:07;18.40;74.00
26254;DHT22;53339;51.378;0.094;2023-07-13T07:57:39;18.50;73.10
26254;DHT22;53339;51.378;0.094;2023-07-13T08:00:11;18.50;73.00
26254;DHT22;53339;51.378;0.094;2023-07-13T08:02:43;18.60;72.80
26254;DHT22;53339;51.378;0.094;2023-07-13T08:05:15;18.50;72.70
26254;DHT22;53339;51.378;0.094;2023-07-13T08:07:46;18.50;72.60
26254;DHT22;53339;51.378;0.094;2023-07-13T08:10:23;18.50;72.80
26254;DHT22;53339;51.378;0.094;2023-07-13T08:12:54;18.50;72.90
26254;DHT22;53339;51.378;0.094;2023-07-13T08:15:25;18.50;72.30
26254;DHT22;53339;51.378;0.094;2023-07-13T08:18:01;18.50;72.30
26254;DHT22;53339;51.378;0.094;2023-07-13T08:20:33;18.40;71.90
26254;DHT22;53339;51.378;0.094;2023-07-13T08:23:01;18.40;71.80
26254;DHT22;53339;51.378;0.094;2023-07-13T08:25:30;18.30;72.20
26254;DHT22;53339;51.378;0.094;2023-07-13T08:28:09;18.30;72.50
26254;DHT22;53339;51.378;0.094;2023-07-13T08:30:37;18.30;72.40
26254;DHT22;53339;51.378;0.094;2023-07-13T08:33:06;18.40;72.30
26254;DHT22;53339;51.378;0.094;2023-07-13T08:35:35;18.40;72.50
26254;DHT22;53339;51.378;0.094;2023-07-13T08:38:03;18.40;72.10
26254;DHT22;53339;51.378;0.094;2023-07-13T08:40:34;18.50;72.30
26254;DHT22;53339;51.378;0.094;2023-07-13T08:43:16;18.60;72.70
26254;DHT22;53339;51.378;0.094;2023-07-13T08:45:52;18.70;71.70
26254;DHT22;53339;51.378;0.094;2023-07-13T08:48:34;18.70;71.30
26254;DHT22;53339;51.378;0.094;2023-07-13T08:51:17;18.80;71.40
26254;DHT22;53339;51.378;0.094;2023-07-13T08:53:57;18.90;71.70
26254;DHT22;53339;51.378;0.094;2023-07-13T08:56:29;19.10;71.70
26254;DHT22;53339;51.378;0.094;2023-07-13T08:59:46;19.30;70.70
26254;DHT22;53339;51.378;0.094;2023-07-13T09:04:48;19.40;69.80
26254;DHT22;53339;51.378;0.094;2023-07-13T09:07:50;19.50;70.20
26254;DHT22;53339;51.378;0.094;2023-07-13T09:15:44;19.60;68.90
26254;DHT22;53339;51.378;0.094;2023-07-13T09:21:03;19.60;68.80
26254;DHT22;53339;51.378;0.094;2023-07-13T09:23:36;19.70;68.20
26254;DHT22;53339;51.378;0.094;2023-07-13T09:29:33;19.70;68.10
26254;DHT22;53339;51.378;0.094;2023-07-13T09:31:44;19.70;67.30
26254;DHT22;53339;51.378;0.094;2023-07-13T09:34:18;19.70;67.60
26254;DHT22;53339;51.378;0.094;2023-07-13T09:36:55;19.70;68.10
26254;DHT22;53339;51.378;0.094;2023-07-13T09:39:40;19.90;67.50
26254;DHT22;53339;51.378;0.094;2023-07-13T09:42:18;20.00;66.90
26254;DHT22;53339;51.378;0.094;2023-07-13T09:45:00;20.20;66.50
26254;DHT22;53339;51.378;0.094;2023-07-13T09:47:42;20.30;66.10
26254;DHT22;53339;51.378;0.094;2023-07-13T09:50:15;20.60;65.00
26254;DHT22;53339;51.378;0.094;2023-07-13T09:52:46;20.60;65.20
26254;DHT22;53339;51.378;0.094;2023-07-13T09:55:36;20.90;64.80
26254;DHT22;53339;51.378;0.094;2023-07-13T09:58:24;21.10;63.70
26254;DHT22;53339;51.378;0.094;2023-07-13T10:00:59;21.20;63.20
26254;DHT22;53339;51.378;0.094;2023-07-13T10:03:29;21.30;62.90
26254;DHT22;53339;51.378;0.094;2023-07-13T10:06:12;21.40;63.10
26254;DHT22;53339;51.378;0.094;2023-07-13T10:08:40;21.40;61.80
26254;DHT22;53339;51.378;0.094;2023-07-13T10:11:19;21.40;62.50
26254;DHT22;53339;51.378;0.094;2023-07-13T10:13:56;21.50;63.40
26254;DHT22;53339;51.378;0.094;2023-07-13T10:16:28;21.70;62.30
26254;DHT22;53339;51.378;0.094;2023-07-13T10:19:25;21.60;60.80
26254;DHT22;53339;51.378;0.094;2023-07-13T10:22:10;21.60;60.30
26254;DHT22;53339;51.378;0.094;2023-07-13T10:24:41;21.50;58.70
26254;DHT22;53339;51.378;0.094;2023-07-13T10:27:19;21.40;57.90
26254;DHT22;53339;51.378;0.094;2023-07-13T10:32:22;21.40;59.10
26254;DHT22;53339;51.378;0.094;2023-07-13T10:34:55;21.40;59.10
26254;DHT22;53339;51.378;0.094;2023-07-13T10:37:58;21.40;59.60
26254;DHT22;53339;51.378;0.094;2023-07-13T10:40:40;21.30;60.30
26254;DHT22;53339;51.378;0.094;2023-07-13T10:46:00;21.60;57.90
26254;DHT22;53339;51.378;0.094;2023-07-13T10:48:29;21.40;57.90
26254;DHT22;53339;51.378;0.094;2023-07-13T10:51:05;21.30;59.10
26254;DHT22;53339;51.378;0.094;2023-07-13T10:54:20;21.20;59.90
26254;DHT22;53339;51.378;0.094;2023-07-13T10:59:40;20.70;62.50
26254;DHT22;53339;51.378;0.094;2023-07-13T11:02:15;20.50;64.20
26254;DHT22;53339;51.378;0.094;2023-07-13T11:04:47;20.30;65.30
26254;DHT22;53339;51.378;0.094;2023-07-13T11:07:28;20.20;65.90
26254;DHT22;53339;51.378;0.094;2023-07-13T11:09:58;20.20;66.50
26254;DHT22;53339;51.378;0.094;2023-07-13T11:12:51;20.40;66.80
26254;DHT22;53339;51.378;0.094;2023-07-13T11:15:43;20.70;66.40
26254;DHT22;53339;51.378;0.094;2023-07-13T11:18:22;21.20;65.50
26254;DHT22;53339;51.378;0.094;2023-07-13T11:21:17;21.60;64.00
26254;DHT22;53339;51.378;0.094;2023-07-13T11:26:53;21.90;62.00
26254;DHT22;53339;51.378;0.094;2023-07-13T11:29:37;22.10;61.10
26254;DHT22;53339;51.378;0.094;2023-07-13T11:32:29;22.20;61.30
26254;DHT22;53339;51.378;0.094;2023-07-13T11:35:00;22.30;61.20
26254;DHT22;53339;51.378;0.094;2023-07-13T11:37:32;22.50;59.70
26254;DHT22;53339;51.378;0.094;2023-07-13T11:40:00;22.60;58.20
26254;DHT22;53339;51.378;0.094;2023-07-13T11:42:29;22.90;58.80
26254;DHT22;53339;51.378;0.094;2023-07-13T11:45:25;23.20;57.10
26254;DHT22;53339;51.378;0.094;2023-07-13T11:51:04;23.20;55.60
26254;DHT22;53339;51.378;0.094;2023-07-13T11:53:46;22.90;55.40
26254;DHT22;53339;51.378;0.094;2023-07-13T11:56:20;22.60;56.20
26254;DHT22;53339;51.378;0.094;2023-07-13T11:58:53;22.40;55.70
26254;DHT22;53339;51.378;0.094;2023-07-13T12:01:27;22.20;56.30
26254;DHT22;53339;51.378;0.094;2023-07-13T12:04:04;22.30;57.00
26254;DHT22;53339;51.378;0.094;2023-07-13T12:06:37;22.60;56.50
26254;DHT22;53339;51.378;0.094;2023-07-13T12:09:13;22.70;54.80
26254;DHT22;53339;51.378;0.094;2023-07-13T12:11:42;22.70;55.00
26254;DHT22;53339;51.378;0.094;2023-07-13T12:14:17;22.50;54.60
26254;DHT22;53339;51.378;0.094;2023-07-13T12:16:48;22.30;55.80
26254;DHT22;53339;51.378;0.094;2023-07-13T12:19:22;22.00;56.60
26254;DHT22;53339;51.378;0.094;2023-07-13T12:22:10;21.40;61.60
26254;DHT22;53339;51.378;0.094;2023-07-13T12:24:41;20.20;67.30
26254;DHT22;53339;51.378;0.094;2023-07-13T12:27:22;19.30;71.30
26254;DHT22;53339;51.378;0.094;2023-07-13T12:29:59;18.70;73.90
26254;DHT22;53339;51.378;0.094;2023-07-13T12:32:28;18.30;76.00
26254;DHT22;53339;51.378;0.094;2023-07-13T12:35:17;18.20;77.00
26254;DHT22;53339;51.378;0.094;2023-07-13T12:37:51;18.10;77.70
26254;DHT22;53339;51.378;0.094;2023-07-13T12:40:21;18.00;78.10
26254;DHT22;53339;51.378;0.094;2023-07-13T12:42:56;18.10;78.40
26254;DHT22;53339;51.378;0.094;2023-07-13T12:45:26;18.20;78.80
26254;DHT22;53339;51.378;0.094;2023-07-13T12:48:04;18.40;79.00
26254;DHT22;53339;51.378;0.094;2023-07-13T12:50:46;18.60;79.00
26254;DHT22;53339;51.378;0.094;2023-07-13T12:53:29;18.70;78.90
26254;DHT22;53339;51.378;0.094;2023-07-13T12:56:03;18.90;78.80
26254;DHT22;53339;51.378;0.094;2023-07-13T12:58:39;19.10;79.10
26254;DHT22;53339;51.378;0.094;2023-07-13T13:01:11;19.40;78.00
26254;DHT22;53339;51.378;0.094;2023-07-13T13:03:52;19.70;77.20
26254;DHT22;53339;51.378;0.094;2023-07-13T13:06:31;20.00;73.70
26254;DHT22;53339;51.378;0.094;2023-07-13T13:09:00;20.00;70.70
26254;DHT22;53339;51.378;0.094;2023-07-13T13:11:31;20.20;69.70
26254;DHT22;53339;51.378;0.094;2023-07-13T13:13:59;20.20;69.60
26254;DHT22;53339;51.378;0.094;2023-07-13T13:16:48;20.20;69.20
26254;DHT22;53339;51.378;0.094;2023-07-13T13:19:25;20.10;68.90
26254;DHT22;53339;51.378;0.094;2023-07-13T13:21:54;19.90;68.70
26254;DHT22;53339;51.378;0.094;2023-07-13T13:24:27;19.90;70.30
26254;DHT22;53339;51.378;0.094;2023-07-13T13:26:56;20.10;70.40
26254;DHT22;53339;51.378;0.094;2023-07-13T13:29:25;20.20;69.30
26254;DHT22;53339;51.378;0.094;2023-07-13T13:31:55;20.40;70.70
26254;DHT22;53339;51.378;0.094;2023-07-13T13:34:32;20.60;70.10
26254;DHT22;53339;51.378;0.094;2023-07-13T13:37:02;20.70;68.90
26254;DHT22;53339;51.378;0.094;2023-07-13T13:39:39;21.20;69.70
26254;DHT22;53339;51.378;0.094;2023-07-13T13:42:26;22.00;68.40
26254;DHT22;53339;51.378;0.094;2023-07-13T13:45:01;22.50;67.80
26254;DHT22;53339;51.378;0.094;2023-07-13T13:47:32;22.60;63.50
26254;DHT22;53339;51.378;0.094;2023-07-13T13:50:22;23.00;63.20
26254;DHT22;53339;51.378;0.094;2023-07-13T13:52:53;23.70;60.70
26254;DHT22;53339;51.378;0.094;2023-07-13T13:55:26;24.20;58.80
26254;DHT22;53339;51.378;0.094;2023-07-13T13:57:55;24.10;56.50
26254;DHT22;53339;51.378;0.094;2023-07-13T14:00:28;23.70;58.20
26254;DHT22;53339;51.378;0.094;2023-07-13T14:02:57;23.40;60.70
26254;DHT22;53339;51.378;0.094;2023-07-13T14:05:32;23.30;60.80
26254;DHT22;53339;51.378;0.094;2023-07-13T14:08:00;23.10;60.80
26254;DHT22;53339;51.378;0.094;2023-07-13T14:10:33;23.00;61.60
26254;DHT22;53339;51.378;0.094;2023-07-13T14:13:01;22.70;62.30
26254;DHT22;53339;51.378;0.094;2023-07-13T14:15:32;22.70;63.60
26254;DHT22;53339;51.378;0.094;2023-07-13T14:18:00;22.60;62.00
26254;DHT22;53339;51.378;0.094;2023-07-13T14:20:27;22.40;61.70
26254;DHT22;53339;51.378;0.094;2023-07-13T14:22:57;22.30;61.90
26254;DHT22;53339;51.378;0.094;2023-07-13T14:25:25;22.20;61.90
26254;DHT22;53339;51.378;0.094;2023-07-13T14:27:57;22.40;62.10
26254;DHT22;53339;51.378;0.094;2023-07-13T14:30:26;22.70;62.10
26254;DHT22;53339;51.378;0.094;2023-07-13T14:33:08;22.80;59.50
26254;DHT22;53339;51.378;0.094;2023-07-13T14:35:37;22.80;61.50
26254;DHT22;53339;51.378;0.094;2023-07-13T14:38:13;23.00;59.50
26254;DHT22;53339;51.378;0.094;2023-07-13T14:40:53;23.10;57.70
26254;DHT22;53339;51.378;0.094;2023-07-13T14:43:23;23.20;55.50
26254;DHT22;53339;51.378;0.094;2023-07-13T14:45:56;23.30;54.30
26254;DHT22;53339;51.378;0.094;2023-07-13T14:48:28;23.40;54.80
26254;DHT22;53339;51.378;0.094;2023-07-13T14:50:59;23.50;53.90
26254;DHT22;53339;51.378;0.094;2023-07-13T14:53:31;23.70;52.90
26254;DHT22;53339;51.378;0.094;2023-07-13T14:56:01;24.00;51.30
26254;DHT22;53339;51.378;0.094;2023-07-13T14:58:30;24.30;51.60
26254;DHT22;53339;51.378;0.094;2023-07-13T15:01:01;24.30;50.80
26254;DHT22;53339;51.378;0.094;2023-07-13T15:03:33;24.40;50.90
26254;DHT22;53339;51.378;0.094;2023-07-13T15:06:12;24.90;49.60
26254;DHT22;53339;51.378;0.094;2023-07-13T15:08:41;25.70;49.10
26254;DHT22;53339;51.378;0.094;2023-07-13T15:11:10;26.00;47.20
26254;DHT22;53339;51.378;0.094;2023-07-13T15:13:46;26.40;47.90
26254;DHT22;53339;51.378;0.094;2023-07-13T15:16:22;26.30;47.60
26254;DHT22;53339;51.378;0.094;2023-07-13T15:18:51;26.10;46.30
26254;DHT22;53339;51.378;0.094;2023-07-13T15:21:23;25.60;45.90
26254;DHT22;53339;51.378;0.094;2023-07-13T15:23:55;25.20;47.30
26254;DHT22;53339;51.378;0.094;2023-07-13T15:26:38;25.20;46.90
26254;DHT22;53339;51.378;0.094;2023-07-13T15:29:08;25.60;47.50
26254;DHT22;53339;51.378;0.094;2023-07-13T15:31:38;26.10;46.40
26254;DHT22;53339;51.378;0.094;2023-07-13T15:34:16;26.60;45.50
26254;DHT22;53339;51.378;0.094;2023-07-13T15:36:46;27.00;46.30
26254;DHT22;53339;51.378;0.094;2023-07-13T15:39:19;27.30;44.30
26254;DHT22;53339;51.378;0.094;2023-07-13T15:41:49;27.00;44.60
26254;DHT22;53339;51.378;0.094;2023-07-13T15:44:30;26.40;45.20
26254;DHT22;53339;51.378;0.094;2023-07-13T15:46:58;25.70;45.90
26254;DHT22;53339;51.378;0.094;2023-07-13T15:49:38;25.60;47.30
26254;DHT22;53339;51.378;0.094;2023-07-13T15:52:29;25.80;44.60
26254;DHT22;53339;51.378;0.094;2023-07-13T15:54:58;25.70;46.00
26254;DHT22;53339;51.378;0.094;2023-07-13T15:57:28;26.20;45.10
26254;DHT22;53339;51.378;0.094;2023-07-13T16:00:00;26.60;44.00
26254;DHT22;53339;51.378;0.094;2023-07-13T16:02:39;27.00;43.00
26254;DHT22;53339;51.378;0.094;2023-07-13T16:05:11;27.60;43.30
26254;DHT22;53339;51.378;0.094;2023-07-13T16:07:39;28.00;40.80
26254;DHT22;53339;51.378;0.094;2023-07-13T16:10:18;28.20;41.50
26254;DHT22;53339;51.378;0.094;2023-07-13T16:13:03;28.20;40.40
26254;DHT22;53339;51.378;0.094;2023-07-13T16:15:38;28.00;41.50
26254;DHT22;53339;51.378;0.094;2023-07-13T16:18:12;28.10;41.60
26254;DHT22;53339;51.378;0.094;2023-07-13T16:20:40;28.20;41.00
26254;DHT22;53339;51.378;0.094;2023-07-13T16:23:11;28.20;39.80
26254;DHT22;53339;51.378;0.094;2023-07-13T16:25:43;27.90;40.60
26254;DHT22;53339;51.378;0.094;2023-07-13T16:28:16;27.80;41.80
26254;DHT22;53339;51.378;0.094;2023-07-13T16:30:51;27.60;41.10
26254;DHT22;53339;51.378;0.094;2023-07-13T16:33:19;27.20;41.10
26254;DHT22;53339;51.378;0.094;2023-07-13T16:35:49;26.70;41.80
26254;DHT22;53339;51.378;0.094;2023-07-13T16:38:20;26.10;42.50
26254;DHT22;53339;51.378;0.094;2023-07-13T16:40:48;25.20;44.20
26254;DHT22;53339;51.378;0.094;2023-07-13T16:43:21;24.30;46.10
26254;DHT22;53339;51.378;0.094;2023-07-13T16:46:11;23.70;47.80